sensor_id;sensor_type;location;lat;lon;timestamp;P1;durP1;ratioP1;P2;durP2;ratioP2
21501;SDS011;27639;48.674;9.242;2024-02-23T00:01:27;0.30;;;0.30;;
21501;SDS011;27639;48.674;9.242;2024-02-23T00:03:53;1.25;;;0.38;;
21501;SDS011;27639;48.674;9.242;2024-02-23T00:06:20;0.68;;;0.40;;
21501;SDS011;27639;48.674;9.242;2024-02-23T00:08:46;0.45;;;0.30;;
21501;SDS011;27639;48.674;9.242;2024-02-23T00:11:11;1.10;;;0.50;;
21501;SDS011;27639;48.674;9.242;2024-02-23T00:13:37;0.77;;;0.50;;
21501;SDS011;27639;48.674;9.242;2024-02-23T00:16:03;0.85;;;0.30;;
21501;SDS011;27639;48.674;9.242;2024-02-23T00:18:28;1.13;;;0.40;;
21501;SDS011;27639;48.674;9.242;2024-02-23T00:20:54;0.80;;;0.32;;
21501;SDS011;27639;48.674;9.242;2024-02-23T00:23:21;1.23;;;0.30;;
21501;SDS011;27639;48.674;9.242;2024-02-23T00:25:47;0.80;;;0.40;;
21501;SDS011;27639;48.674;9.242;2024-02-23T00:28:12;0.90;;;0.40;;
21501;SDS011;27639;48.674;9.242;2024-02-23T00:30:38;0.68;;;0.40;;
21501;SDS011;27639;48.674;9.242;2024-02-23T00:33:03;0.35;;;0.25;;
21501;SDS011;27639;48.674;9.242;2024-02-23T00:35:29;1.40;;;0.60;;
21501;SDS011;27639;48.674;9.242;2024-02-23T00:37:55;0.98;;;0.40;;
21501;SDS011;27639;48.674;9.242;2024-02-23T00:40:20;1.40;;;0.50;;
21501;SDS011;27639;48.674;9.242;2024-02-23T00:42:46;0.80;;;0.40;;
21501;SDS011;27639;48.674;9.242;2024-02-23T00:45:11;3.22;;;1.10;;
21501;SDS011;27639;48.674;9.242;2024-02-23T00:47:37;1.23;;;0.60;;
21501;SDS011;27639;48.674;9.242;2024-02-23T00:50:03;2.75;;;0.60;;
21501;SDS011;27639;48.674;9.242;2024-02-23T00:52:28;0.70;;;0.38;;
21501;SDS011;27639;48.674;9.242;2024-02-23T00:54:54;1.42;;;0.50;;
21501;SDS011;27639;48.674;9.242;2024-02-23T00:57:20;1.33;;;0.30;;
21501;SDS011;27639;48.674;9.242;2024-02-23T00:59:52;1.77;;;0.40;;
21501;SDS011;27639;48.674;9.242;2024-02-23T01:02:17;2.83;;;0.45;;
21501;SDS011;27639;48.674;9.242;2024-02-23T01:04:43;1.27;;;0.43;;
21501;SDS011;27639;48.674;9.242;2024-02-23T01:07:09;2.25;;;0.50;;
21501;SDS011;27639;48.674;9.242;2024-02-23T01:09:35;1.20;;;0.40;;
21501;SDS011;27639;48.674;9.242;2024-02-23T01:12:01;1.23;;;0.50;;
21501;SDS011;27639;48.674;9.242;2024-02-23T01:14:26;1.88;;;0.38;;
21501;SDS011;27639;48.674;9.242;2024-02-23T01:16:52;1.95;;;0.38;;
21501;SDS011;27639;48.674;9.242;2024-02-23T01:19:17;1.30;;;0.52;;
21501;SDS011;27639;48.674;9.242;2024-02-23T01:21:43;0.47;;;0.30;;
21501;SDS011;27639;48.674;9.242;2024-02-23T01:24:09;1.90;;;0.50;;
21501;SDS011;27639;48.674;9.242;2024-02-23T01:26:34;1.85;;;0.60;;
21501;SDS011;27639;48.674;9.242;2024-02-23T01:29:01;0.75;;;0.30;;
21501;SDS011;27639;48.674;9.242;2024-02-23T01:31:28;2.88;;;0.40;;
21501;SDS011;27639;48.674;9.242;2024-02-23T01:33:54;1.75;;;0.50;;
21501;SDS011;27639;48.674;9.242;2024-02-23T01:36:19;3.00;;;0.88;;
21501;SDS011;27639;48.674;9.242;2024-02-23T01:38:45;1.02;;;0.30;;
21501;SDS011;27639;48.674;9.242;2024-02-23T01:41:11;1.23;;;0.30;;
21501;SDS011;27639;48.674;9.242;2024-02-23T01:43:37;0.98;;;0.40;;
21501;SDS011;27639;48.674;9.242;2024-02-23T01:46:02;1.98;;;0.50;;
21501;SDS011;27639;48.674;9.242;2024-02-23T01:48:29;0.70;;;0.30;;
21501;SDS011;27639;48.674;9.242;2024-02-23T01:50:56;2.28;;;0.50;;
21501;SDS011;27639;48.674;9.242;2024-02-23T01:53:22;0.98;;;0.30;;
21501;SDS011;27639;48.674;9.242;2024-02-23T01:55:49;1.13;;;0.32;;
21501;SDS011;27639;48.674;9.242;2024-02-23T01:58:16;1.55;;;0.45;;
21501;SDS011;27639;48.674;9.242;2024-02-23T02:00:42;1.25;;;0.38;;
21501;SDS011;27639;48.674;9.242;2024-02-23T02:03:08;1.25;;;0.40;;
21501;SDS011;27639;48.674;9.242;2024-02-23T02:05:35;2.70;;;0.65;;
21501;SDS011;27639;48.674;9.242;2024-02-23T02:08:02;3.10;;;0.50;;
21501;SDS011;27639;48.674;9.242;2024-02-23T02:10:28;2.22;;;0.50;;
21501;SDS011;27639;48.674;9.242;2024-02-23T02:12:53;1.27;;;0.50;;
21501;SDS011;27639;48.674;9.242;2024-02-23T02:15:19;2.97;;;0.50;;
21501;SDS011;27639;48.674;9.242;2024-02-23T02:17:47;1.95;;;0.47;;
21501;SDS011;27639;48.674;9.242;2024-02-23T02:20:13;2.10;;;0.40;;
21501;SDS011;27639;48.674;9.242;2024-02-23T02:22:38;1.83;;;0.60;;
21501;SDS011;27639;48.674;9.242;2024-02-23T02:25:05;1.33;;;0.45;;
21501;SDS011;27639;48.674;9.242;2024-02-23T02:27:31;2.47;;;0.60;;
21501;SDS011;27639;48.674;9.242;2024-02-23T02:29:57;1.40;;;0.40;;
21501;SDS011;27639;48.674;9.242;2024-02-23T02:32:22;1.25;;;0.40;;
21501;SDS011;27639;48.674;9.242;2024-02-23T02:34:48;1.55;;;0.50;;
21501;SDS011;27639;48.674;9.242;2024-02-23T02:37:14;0.80;;;0.30;;
21501;SDS011;27639;48.674;9.242;2024-02-23T02:39:40;0.85;;;0.47;;
21501;SDS011;27639;48.674;9.242;2024-02-23T02:42:06;1.70;;;0.50;;
21501;SDS011;27639;48.674;9.242;2024-02-23T02:44:31;4.25;;;0.60;;
21501;SDS011;27639;48.674;9.242;2024-02-23T02:46:57;1.65;;;0.50;;
21501;SDS011;27639;48.674;9.242;2024-02-23T02:49:23;1.10;;;0.40;;
21501;SDS011;27639;48.674;9.242;2024-02-23T02:51:49;3.85;;;0.60;;
21501;SDS011;27639;48.674;9.242;2024-02-23T02:54:15;1.77;;;0.35;;
21501;SDS011;27639;48.674;9.242;2024-02-23T02:56:44;1.40;;;0.50;;
21501;SDS011;27639;48.674;9.242;2024-02-23T02:59:11;1.77;;;0.40;;
21501;SDS011;27639;48.674;9.242;2024-02-23T03:01:37;1.45;;;0.93;;
21501;SDS011;27639;48.674;9.242;2024-02-23T03:04:03;0.90;;;0.40;;
21501;SDS011;27639;48.674;9.242;2024-02-23T03:06:28;0.80;;;0.30;;
21501;SDS011;27639;48.674;9.242;2024-02-23T03:08:54;1.73;;;0.70;;
21501;SDS011;27639;48.674;9.242;2024-02-23T03:11:22;0.77;;;0.40;;
21501;SDS011;27639;48.674;9.242;2024-02-23T03:13:48;1.13;;;0.40;;
21501;SDS011;27639;48.674;9.242;2024-02-23T03:16:17;1.20;;;0.40;;
21501;SDS011;27639;48.674;9.242;2024-02-23T03:18:43;1.95;;;0.50;;
21501;SDS011;27639;48.674;9.242;2024-02-23T03:21:09;1.10;;;0.40;;
21501;SDS011;27639;48.674;9.242;2024-02-23T03:23:35;1.30;;;0.30;;
21501;SDS011;27639;48.674;9.242;2024-02-23T03:26:01;0.82;;;0.40;;
21501;SDS011;27639;48.674;9.242;2024-02-23T03:28:27;1.15;;;0.40;;
21501;SDS011;27639;48.674;9.242;2024-02-23T03:30:53;1.98;;;0.50;;
21501;SDS011;27639;48.674;9.242;2024-02-23T03:33:19;1.77;;;0.40;;
21501;SDS011;27639;48.674;9.242;2024-02-23T03:35:44;2.92;;;1.00;;
21501;SDS011;27639;48.674;9.242;2024-02-23T03:38:10;1.52;;;0.40;;
21501;SDS011;27639;48.674;9.242;2024-02-23T03:40:36;1.35;;;0.40;;
21501;SDS011;27639;48.674;9.242;2024-02-23T03:43:01;1.55;;;0.50;;
21501;SDS011;27639;48.674;9.242;2024-02-23T03:45:27;0.93;;;0.40;;
21501;SDS011;27639;48.674;9.242;2024-02-23T03:47:53;1.02;;;0.40;;
21501;SDS011;27639;48.674;9.242;2024-02-23T03:50:19;1.10;;;0.47;;
21501;SDS011;27639;48.674;9.242;2024-02-23T03:52:44;1.60;;;0.35;;
21501;SDS011;27639;48.674;9.242;2024-02-23T03:55:10;1.80;;;0.40;;
21501;SDS011;27639;48.674;9.242;2024-02-23T03:57:36;2.05;;;0.40;;
21501;SDS011;27639;48.674;9.242;2024-02-23T04:00:02;1.50;;;0.45;;
21501;SDS011;27639;48.674;9.242;2024-02-23T04:02:28;1.23;;;0.40;;
21501;SDS011;27639;48.674;9.242;2024-02-23T04:04:54;0.63;;;0.30;;
21501;SDS011;27639;48.674;9.242;2024-02-23T04:07:19;1.88;;;0.50;;
21501;SDS011;27639;48.674;9.242;2024-02-23T04:09:45;2.28;;;0.60;;
21501;SDS011;27639;48.674;9.242;2024-02-23T04:12:17;1.52;;;0.60;;
21501;SDS011;27639;48.674;9.242;2024-02-23T04:14:46;1.58;;;0.60;;
21501;SDS011;27639;48.674;9.242;2024-02-23T04:17:12;2.05;;;0.43;;
21501;SDS011;27639;48.674;9.242;2024-02-23T04:19:37;1.77;;;0.43;;
21501;SDS011;27639;48.674;9.242;2024-02-23T04:22:06;0.65;;;0.30;;
21501;SDS011;27639;48.674;9.242;2024-02-23T04:24:38;1.33;;;0.50;;
21501;SDS011;27639;48.674;9.242;2024-02-23T04:27:08;1.52;;;0.47;;
21501;SDS011;27639;48.674;9.242;2024-02-23T04:29:33;3.08;;;0.90;;
21501;SDS011;27639;48.674;9.242;2024-02-23T04:32:00;1.85;;;0.40;;
21501;SDS011;27639;48.674;9.242;2024-02-23T04:34:26;1.35;;;0.50;;
21501;SDS011;27639;48.674;9.242;2024-02-23T04:36:52;1.55;;;0.50;;
21501;SDS011;27639;48.674;9.242;2024-02-23T04:39:18;0.95;;;0.50;;
21501;SDS011;27639;48.674;9.242;2024-02-23T04:41:44;1.27;;;0.40;;
21501;SDS011;27639;48.674;9.242;2024-02-23T04:44:09;1.95;;;0.50;;
21501;SDS011;27639;48.674;9.242;2024-02-23T04:46:35;2.00;;;0.50;;
21501;SDS011;27639;48.674;9.242;2024-02-23T04:49:01;1.40;;;0.45;;
21501;SDS011;27639;48.674;9.242;2024-02-23T04:51:27;1.83;;;0.50;;
21501;SDS011;27639;48.674;9.242;2024-02-23T04:53:52;1.70;;;0.50;;
21501;SDS011;27639;48.674;9.242;2024-02-23T04:56:18;2.47;;;0.60;;
21501;SDS011;27639;48.674;9.242;2024-02-23T04:58:44;3.40;;;1.40;;
21501;SDS011;27639;48.674;9.242;2024-02-23T05:01:10;2.92;;;1.10;;
21501;SDS011;27639;48.674;9.242;2024-02-23T05:03:36;3.75;;;1.20;;
21501;SDS011;27639;48.674;9.242;2024-02-23T05:06:02;2.60;;;0.80;;
21501;SDS011;27639;48.674;9.242;2024-02-23T05:08:28;2.22;;;0.73;;
21501;SDS011;27639;48.674;9.242;2024-02-23T05:10:55;2.03;;;0.70;;
21501;SDS011;27639;48.674;9.242;2024-02-23T05:13:21;2.38;;;0.65;;
21501;SDS011;27639;48.674;9.242;2024-02-23T05:15:47;2.25;;;0.63;;
21501;SDS011;27639;48.674;9.242;2024-02-23T05:18:12;2.05;;;0.50;;
21501;SDS011;27639;48.674;9.242;2024-02-23T05:20:38;1.35;;;0.50;;
21501;SDS011;27639;48.674;9.242;2024-02-23T05:23:03;1.95;;;0.50;;
21501;SDS011;27639;48.674;9.242;2024-02-23T05:25:29;3.38;;;0.70;;
21501;SDS011;27639;48.674;9.242;2024-02-23T05:27:55;4.43;;;1.45;;
21501;SDS011;27639;48.674;9.242;2024-02-23T05:30:20;2.92;;;1.00;;
21501;SDS011;27639;48.674;9.242;2024-02-23T05:32:46;3.72;;;1.23;;
21501;SDS011;27639;48.674;9.242;2024-02-23T05:35:12;4.03;;;1.30;;
21501;SDS011;27639;48.674;9.242;2024-02-23T05:37:38;2.67;;;1.10;;
21501;SDS011;27639;48.674;9.242;2024-02-23T05:40:04;3.22;;;1.20;;
21501;SDS011;27639;48.674;9.242;2024-02-23T05:42:34;3.33;;;0.88;;
21501;SDS011;27639;48.674;9.242;2024-02-23T05:45:00;2.33;;;1.00;;
21501;SDS011;27639;48.674;9.242;2024-02-23T05:47:26;1.33;;;0.50;;
21501;SDS011;27639;48.674;9.242;2024-02-23T05:49:52;1.40;;;0.50;;
21501;SDS011;27639;48.674;9.242;2024-02-23T05:52:18;2.22;;;0.77;;
21501;SDS011;27639;48.674;9.242;2024-02-23T05:54:44;1.15;;;0.50;;
21501;SDS011;27639;48.674;9.242;2024-02-23T05:57:09;1.60;;;0.57;;
21501;SDS011;27639;48.674;9.242;2024-02-23T05:59:35;1.70;;;0.55;;
21501;SDS011;27639;48.674;9.242;2024-02-23T06:02:00;2.28;;;0.70;;
21501;SDS011;27639;48.674;9.242;2024-02-23T06:04:26;1.30;;;0.60;;
21501;SDS011;27639;48.674;9.242;2024-02-23T06:06:52;4.03;;;0.93;;
21501;SDS011;27639;48.674;9.242;2024-02-23T06:09:18;1.85;;;0.60;;
21501;SDS011;27639;48.674;9.242;2024-02-23T06:11:44;1.40;;;0.60;;
21501;SDS011;27639;48.674;9.242;2024-02-23T06:14:09;2.05;;;0.80;;
21501;SDS011;27639;48.674;9.242;2024-02-23T06:16:36;2.40;;;0.88;;
21501;SDS011;27639;48.674;9.242;2024-02-23T06:19:02;2.70;;;1.10;;
21501;SDS011;27639;48.674;9.242;2024-02-23T06:21:28;3.72;;;1.15;;
21501;SDS011;27639;48.674;9.242;2024-02-23T06:23:54;2.47;;;0.93;;
21501;SDS011;27639;48.674;9.242;2024-02-23T06:26:20;5.22;;;1.50;;
21501;SDS011;27639;48.674;9.242;2024-02-23T06:28:46;2.67;;;1.25;;
21501;SDS011;27639;48.674;9.242;2024-02-23T06:31:13;4.47;;;2.40;;
21501;SDS011;27639;48.674;9.242;2024-02-23T06:33:39;5.32;;;2.60;;
21501;SDS011;27639;48.674;9.242;2024-02-23T06:36:08;3.10;;;1.42;;
21501;SDS011;27639;48.674;9.242;2024-02-23T06:38:34;3.08;;;1.23;;
21501;SDS011;27639;48.674;9.242;2024-02-23T06:41:00;2.85;;;1.25;;
21501;SDS011;27639;48.674;9.242;2024-02-23T06:43:25;3.13;;;1.20;;
21501;SDS011;27639;48.674;9.242;2024-02-23T06:45:51;3.22;;;1.38;;
21501;SDS011;27639;48.674;9.242;2024-02-23T06:48:17;3.58;;;1.30;;
21501;SDS011;27639;48.674;9.242;2024-02-23T06:50:43;3.80;;;1.40;;
21501;SDS011;27639;48.674;9.242;2024-02-23T06:53:09;3.05;;;1.27;;
21501;SDS011;27639;48.674;9.242;2024-02-23T06:55:34;3.25;;;1.40;;
21501;SDS011;27639;48.674;9.242;2024-02-23T06:58:01;3.80;;;1.42;;
21501;SDS011;27639;48.674;9.242;2024-02-23T07:00:27;3.60;;;1.13;;
21501;SDS011;27639;48.674;9.242;2024-02-23T07:02:52;3.22;;;1.05;;
21501;SDS011;27639;48.674;9.242;2024-02-23T07:05:18;3.17;;;1.30;;
21501;SDS011;27639;48.674;9.242;2024-02-23T07:07:43;3.15;;;1.10;;
21501;SDS011;27639;48.674;9.242;2024-02-23T07:10:09;3.03;;;1.10;;
21501;SDS011;27639;48.674;9.242;2024-02-23T07:12:37;4.10;;;1.40;;
21501;SDS011;27639;48.674;9.242;2024-02-23T07:15:02;3.70;;;1.15;;
21501;SDS011;27639;48.674;9.242;2024-02-23T07:17:28;4.13;;;1.17;;
21501;SDS011;27639;48.674;9.242;2024-02-23T07:19:53;4.55;;;1.40;;
21501;SDS011;27639;48.674;9.242;2024-02-23T07:22:21;4.28;;;1.30;;
21501;SDS011;27639;48.674;9.242;2024-02-23T07:24:46;3.03;;;1.15;;
21501;SDS011;27639;48.674;9.242;2024-02-23T07:27:12;4.75;;;1.40;;
21501;SDS011;27639;48.674;9.242;2024-02-23T07:29:38;3.25;;;1.15;;
21501;SDS011;27639;48.674;9.242;2024-02-23T07:32:03;3.28;;;1.08;;
21501;SDS011;27639;48.674;9.242;2024-02-23T07:34:30;2.75;;;0.90;;
21501;SDS011;27639;48.674;9.242;2024-02-23T07:36:56;2.88;;;1.08;;
21501;SDS011;27639;48.674;9.242;2024-02-23T07:39:22;2.90;;;1.20;;
21501;SDS011;27639;48.674;9.242;2024-02-23T07:41:47;3.40;;;0.85;;
21501;SDS011;27639;48.674;9.242;2024-02-23T07:44:13;2.67;;;0.90;;
21501;SDS011;27639;48.674;9.242;2024-02-23T07:46:38;4.15;;;1.30;;
21501;SDS011;27639;48.674;9.242;2024-02-23T07:49:04;2.83;;;0.82;;
21501;SDS011;27639;48.674;9.242;2024-02-23T07:51:34;3.33;;;1.02;;
21501;SDS011;27639;48.674;9.242;2024-02-23T07:54:00;2.25;;;0.70;;
21501;SDS011;27639;48.674;9.242;2024-02-23T07:56:26;3.25;;;1.05;;
21501;SDS011;27639;48.674;9.242;2024-02-23T07:58:52;2.75;;;0.80;;
21501;SDS011;27639;48.674;9.242;2024-02-23T08:01:18;3.35;;;0.90;;
21501;SDS011;27639;48.674;9.242;2024-02-23T08:03:44;1.92;;;0.70;;
21501;SDS011;27639;48.674;9.242;2024-02-23T08:06:10;5.07;;;0.80;;
21501;SDS011;27639;48.674;9.242;2024-02-23T08:08:35;2.47;;;0.65;;
21501;SDS011;27639;48.674;9.242;2024-02-23T08:11:04;5.65;;;1.10;;
21501;SDS011;27639;48.674;9.242;2024-02-23T08:13:30;3.80;;;1.33;;
21501;SDS011;27639;48.674;9.242;2024-02-23T08:15:56;5.10;;;2.15;;
21501;SDS011;27639;48.674;9.242;2024-02-23T08:18:22;6.28;;;2.55;;
21501;SDS011;27639;48.674;9.242;2024-02-23T08:20:48;7.22;;;2.75;;
21501;SDS011;27639;48.674;9.242;2024-02-23T08:23:14;4.85;;;2.10;;
21501;SDS011;27639;48.674;9.242;2024-02-23T08:25:39;4.75;;;1.67;;
21501;SDS011;27639;48.674;9.242;2024-02-23T08:28:05;4.13;;;1.30;;
21501;SDS011;27639;48.674;9.242;2024-02-23T08:30:31;3.03;;;1.38;;
21501;SDS011;27639;48.674;9.242;2024-02-23T08:32:57;2.92;;;1.05;;
21501;SDS011;27639;48.674;9.242;2024-02-23T08:35:22;3.17;;;1.00;;
21501;SDS011;27639;48.674;9.242;2024-02-23T08:37:48;4.55;;;1.33;;
21501;SDS011;27639;48.674;9.242;2024-02-23T08:40:13;3.00;;;1.13;;
21501;SDS011;27639;48.674;9.242;2024-02-23T08:42:39;5.28;;;1.20;;
21501;SDS011;27639;48.674;9.242;2024-02-23T08:45:05;3.20;;;0.93;;
21501;SDS011;27639;48.674;9.242;2024-02-23T08:47:31;2.90;;;0.80;;
21501;SDS011;27639;48.674;9.242;2024-02-23T08:50:00;3.17;;;0.80;;
21501;SDS011;27639;48.674;9.242;2024-02-23T08:52:26;2.25;;;0.80;;
21501;SDS011;27639;48.674;9.242;2024-02-23T08:54:52;3.72;;;1.27;;
21501;SDS011;27639;48.674;9.242;2024-02-23T08:57:17;4.60;;;1.13;;
21501;SDS011;27639;48.674;9.242;2024-02-23T08:59:48;4.28;;;1.20;;
21501;SDS011;27639;48.674;9.242;2024-02-23T09:02:14;2.78;;;1.05;;
21501;SDS011;27639;48.674;9.242;2024-02-23T09:04:40;2.70;;;0.80;;
21501;SDS011;27639;48.674;9.242;2024-02-23T09:07:05;2.67;;;1.10;;
21501;SDS011;27639;48.674;9.242;2024-02-23T09:09:31;1.85;;;0.80;;
21501;SDS011;27639;48.674;9.242;2024-02-23T09:11:57;2.83;;;1.00;;
21501;SDS011;27639;48.674;9.242;2024-02-23T09:14:23;3.55;;;1.00;;
21501;SDS011;27639;48.674;9.242;2024-02-23T09:16:50;4.80;;;0.82;;
21501;SDS011;27639;48.674;9.242;2024-02-23T09:19:16;3.42;;;0.80;;
21501;SDS011;27639;48.674;9.242;2024-02-23T09:21:42;3.33;;;0.80;;
21501;SDS011;27639;48.674;9.242;2024-02-23T09:24:07;3.10;;;1.00;;
21501;SDS011;27639;48.674;9.242;2024-02-23T09:26:33;5.20;;;1.20;;
21501;SDS011;27639;48.674;9.242;2024-02-23T09:28:59;4.47;;;1.00;;
21501;SDS011;27639;48.674;9.242;2024-02-23T09:31:24;3.00;;;0.82;;
21501;SDS011;27639;48.674;9.242;2024-02-23T09:33:51;4.40;;;1.05;;
21501;SDS011;27639;48.674;9.242;2024-02-23T09:36:17;3.65;;;0.80;;
21501;SDS011;27639;48.674;9.242;2024-02-23T09:38:42;4.43;;;1.10;;
21501;SDS011;27639;48.674;9.242;2024-02-23T09:41:11;3.22;;;1.00;;
21501;SDS011;27639;48.674;9.242;2024-02-23T09:43:44;2.95;;;0.90;;
21501;SDS011;27639;48.674;9.242;2024-02-23T09:46:11;2.45;;;0.68;;
21501;SDS011;27639;48.674;9.242;2024-02-23T09:48:38;4.25;;;1.10;;
21501;SDS011;27639;48.674;9.242;2024-02-23T09:51:04;5.05;;;1.10;;
21501;SDS011;27639;48.674;9.242;2024-02-23T09:53:31;2.50;;;0.80;;
21501;SDS011;27639;48.674;9.242;2024-02-23T09:55:59;3.55;;;1.08;;
21501;SDS011;27639;48.674;9.242;2024-02-23T09:58:25;2.95;;;1.00;;
21501;SDS011;27639;48.674;9.242;2024-02-23T10:00:54;5.28;;;1.13;;
21501;SDS011;27639;48.674;9.242;2024-02-23T10:03:23;6.78;;;1.20;;
21501;SDS011;27639;48.674;9.242;2024-02-23T10:05:51;4.28;;;1.02;;
21501;SDS011;27639;48.674;9.242;2024-02-23T10:08:16;3.45;;;0.98;;
21501;SDS011;27639;48.674;9.242;2024-02-23T10:10:42;3.70;;;1.20;;
21501;SDS011;27639;48.674;9.242;2024-02-23T10:13:11;4.07;;;1.30;;
21501;SDS011;27639;48.674;9.242;2024-02-23T10:15:37;4.80;;;1.10;;
21501;SDS011;27639;48.674;9.242;2024-02-23T10:18:03;2.92;;;0.93;;
21501;SDS011;27639;48.674;9.242;2024-02-23T10:20:29;4.95;;;1.30;;
21501;SDS011;27639;48.674;9.242;2024-02-23T10:22:55;7.20;;;1.02;;
21501;SDS011;27639;48.674;9.242;2024-02-23T10:25:21;3.17;;;0.90;;
21501;SDS011;27639;48.674;9.242;2024-02-23T10:27:47;5.70;;;1.00;;
21501;SDS011;27639;48.674;9.242;2024-02-23T10:30:13;3.72;;;0.90;;
21501;SDS011;27639;48.674;9.242;2024-02-23T10:32:40;5.80;;;2.00;;
21501;SDS011;27639;48.674;9.242;2024-02-23T10:35:25;3.63;;;1.13;;
21501;SDS011;27639;48.674;9.242;2024-02-23T10:37:52;5.55;;;1.05;;
21501;SDS011;27639;48.674;9.242;2024-02-23T10:40:20;3.30;;;0.70;;
21501;SDS011;27639;48.674;9.242;2024-02-23T10:42:47;4.70;;;1.13;;
21501;SDS011;27639;48.674;9.242;2024-02-23T10:45:19;2.75;;;0.90;;
21501;SDS011;27639;48.674;9.242;2024-02-23T10:47:47;4.97;;;0.90;;
21501;SDS011;27639;48.674;9.242;2024-02-23T10:50:13;3.63;;;1.05;;
21501;SDS011;27639;48.674;9.242;2024-02-23T10:52:41;3.50;;;0.80;;
21501;SDS011;27639;48.674;9.242;2024-02-23T10:55:10;4.05;;;0.90;;
21501;SDS011;27639;48.674;9.242;2024-02-23T10:57:37;3.42;;;1.27;;
21501;SDS011;27639;48.674;9.242;2024-02-23T11:00:04;2.70;;;0.85;;
21501;SDS011;27639;48.674;9.242;2024-02-23T11:02:34;4.35;;;0.93;;
21501;SDS011;27639;48.674;9.242;2024-02-23T11:05:07;4.38;;;0.95;;
21501;SDS011;27639;48.674;9.242;2024-02-23T11:07:40;7.13;;;1.00;;
21501;SDS011;27639;48.674;9.242;2024-02-23T11:10:05;4.45;;;1.10;;
21501;SDS011;27639;48.674;9.242;2024-02-23T11:12:33;3.83;;;0.80;;
21501;SDS011;27639;48.674;9.242;2024-02-23T11:14:59;3.08;;;0.75;;
21501;SDS011;27639;48.674;9.242;2024-02-23T11:17:28;3.47;;;0.75;;
21501;SDS011;27639;48.674;9.242;2024-02-23T11:19:56;3.60;;;0.70;;
21501;SDS011;27639;48.674;9.242;2024-02-23T11:22:25;3.10;;;0.60;;
21501;SDS011;27639;48.674;9.242;2024-02-23T11:24:52;3.85;;;0.77;;
21501;SDS011;27639;48.674;9.242;2024-02-23T11:27:18;3.97;;;1.00;;
21501;SDS011;27639;48.674;9.242;2024-02-23T11:29:47;3.28;;;0.73;;
21501;SDS011;27639;48.674;9.242;2024-02-23T11:32:23;6.70;;;2.05;;
21501;SDS011;27639;48.674;9.242;2024-02-23T11:35:05;5.50;;;2.25;;
21501;SDS011;27639;48.674;9.242;2024-02-23T11:37:32;4.65;;;1.60;;
21501;SDS011;27639;48.674;9.242;2024-02-23T11:39:58;3.83;;;1.10;;
21501;SDS011;27639;48.674;9.242;2024-02-23T11:42:26;5.28;;;1.08;;
21501;SDS011;27639;48.674;9.242;2024-02-23T11:44:52;4.55;;;0.90;;
21501;SDS011;27639;48.674;9.242;2024-02-23T11:47:21;3.00;;;1.15;;
21501;SDS011;27639;48.674;9.242;2024-02-23T11:49:46;3.17;;;0.70;;
21501;SDS011;27639;48.674;9.242;2024-02-23T11:52:12;3.28;;;0.95;;
21501;SDS011;27639;48.674;9.242;2024-02-23T11:54:37;3.80;;;0.90;;
21501;SDS011;27639;48.674;9.242;2024-02-23T11:57:03;4.78;;;0.82;;
21501;SDS011;27639;48.674;9.242;2024-02-23T11:59:29;4.53;;;1.00;;
21501;SDS011;27639;48.674;9.242;2024-02-23T12:01:55;4.88;;;1.30;;
21501;SDS011;27639;48.674;9.242;2024-02-23T12:04:20;3.22;;;0.70;;
21501;SDS011;27639;48.674;9.242;2024-02-23T12:06:46;5.40;;;0.98;;
21501;SDS011;27639;48.674;9.242;2024-02-23T12:09:12;3.95;;;0.80;;
21501;SDS011;27639;48.674;9.242;2024-02-23T12:11:38;3.38;;;0.90;;
21501;SDS011;27639;48.674;9.242;2024-02-23T12:14:04;3.40;;;1.20;;
21501;SDS011;27639;48.674;9.242;2024-02-23T12:16:33;4.57;;;1.90;;
21501;SDS011;27639;48.674;9.242;2024-02-23T12:19:00;5.93;;;1.75;;
21501;SDS011;27639;48.674;9.242;2024-02-23T12:21:26;3.83;;;1.02;;
21501;SDS011;27639;48.674;9.242;2024-02-23T12:23:51;4.28;;;0.82;;
21501;SDS011;27639;48.674;9.242;2024-02-23T12:26:18;3.92;;;1.00;;
21501;SDS011;27639;48.674;9.242;2024-02-23T12:28:44;4.65;;;1.10;;
21501;SDS011;27639;48.674;9.242;2024-02-23T12:31:13;5.28;;;1.10;;
21501;SDS011;27639;48.674;9.242;2024-02-23T12:33:38;3.35;;;1.17;;
21501;SDS011;27639;48.674;9.242;2024-02-23T12:36:05;4.05;;;0.90;;
21501;SDS011;27639;48.674;9.242;2024-02-23T12:38:31;4.55;;;1.38;;
21501;SDS011;27639;48.674;9.242;2024-02-23T12:40:57;5.38;;;1.13;;
21501;SDS011;27639;48.674;9.242;2024-02-23T12:43:24;4.80;;;1.33;;
21501;SDS011;27639;48.674;9.242;2024-02-23T12:45:53;4.38;;;1.17;;
21501;SDS011;27639;48.674;9.242;2024-02-23T12:48:19;5.80;;;1.48;;
21501;SDS011;27639;48.674;9.242;2024-02-23T12:50:46;4.97;;;1.17;;
21501;SDS011;27639;48.674;9.242;2024-02-23T12:53:31;3.60;;;1.00;;
21501;SDS011;27639;48.674;9.242;2024-02-23T12:55:59;3.22;;;0.88;;
21501;SDS011;27639;48.674;9.242;2024-02-23T12:58:28;5.63;;;1.00;;
21501;SDS011;27639;48.674;9.242;2024-02-23T13:00:55;3.72;;;0.90;;
21501;SDS011;27639;48.674;9.242;2024-02-23T13:03:21;5.97;;;1.10;;
21501;SDS011;27639;48.674;9.242;2024-02-23T13:05:48;4.78;;;0.95;;
21501;SDS011;27639;48.674;9.242;2024-02-23T13:08:16;5.97;;;1.13;;
21501;SDS011;27639;48.674;9.242;2024-02-23T13:10:43;5.10;;;1.02;;
21501;SDS011;27639;48.674;9.242;2024-02-23T13:13:08;5.13;;;1.00;;
21501;SDS011;27639;48.674;9.242;2024-02-23T13:15:34;4.22;;;0.90;;
21501;SDS011;27639;48.674;9.242;2024-02-23T13:18:02;3.35;;;0.90;;
21501;SDS011;27639;48.674;9.242;2024-02-23T13:20:28;6.70;;;1.20;;
21501;SDS011;27639;48.674;9.242;2024-02-23T13:22:54;4.38;;;0.70;;
21501;SDS011;27639;48.674;9.242;2024-02-23T13:25:21;3.50;;;1.08;;
21501;SDS011;27639;48.674;9.242;2024-02-23T13:27:46;2.95;;;1.00;;
21501;SDS011;27639;48.674;9.242;2024-02-23T13:30:12;4.75;;;1.45;;
21501;SDS011;27639;48.674;9.242;2024-02-23T13:32:38;4.88;;;1.20;;
21501;SDS011;27639;48.674;9.242;2024-02-23T13:35:04;4.85;;;1.27;;
21501;SDS011;27639;48.674;9.242;2024-02-23T13:37:31;4.90;;;0.93;;
21501;SDS011;27639;48.674;9.242;2024-02-23T13:39:57;5.38;;;1.00;;
21501;SDS011;27639;48.674;9.242;2024-02-23T13:42:23;4.38;;;0.90;;
21501;SDS011;27639;48.674;9.242;2024-02-23T13:44:48;4.65;;;1.20;;
21501;SDS011;27639;48.674;9.242;2024-02-23T13:47:14;4.53;;;0.90;;
21501;SDS011;27639;48.674;9.242;2024-02-23T13:49:40;6.53;;;0.90;;
21501;SDS011;27639;48.674;9.242;2024-02-23T13:52:05;3.75;;;1.05;;
21501;SDS011;27639;48.674;9.242;2024-02-23T13:54:31;3.67;;;0.93;;
21501;SDS011;27639;48.674;9.242;2024-02-23T13:56:57;10.05;;;1.10;;
21501;SDS011;27639;48.674;9.242;2024-02-23T13:59:22;3.20;;;1.10;;
21501;SDS011;27639;48.674;9.242;2024-02-23T14:01:48;6.75;;;1.20;;
21501;SDS011;27639;48.674;9.242;2024-02-23T14:04:14;5.20;;;1.00;;
21501;SDS011;27639;48.674;9.242;2024-02-23T14:06:39;4.35;;;1.15;;
21501;SDS011;27639;48.674;9.242;2024-02-23T14:09:05;4.65;;;1.15;;
21501;SDS011;27639;48.674;9.242;2024-02-23T14:11:31;4.03;;;1.08;;
21501;SDS011;27639;48.674;9.242;2024-02-23T14:13:57;3.65;;;1.20;;
21501;SDS011;27639;48.674;9.242;2024-02-23T14:16:25;5.72;;;1.10;;
21501;SDS011;27639;48.674;9.242;2024-02-23T14:18:51;4.20;;;0.88;;
21501;SDS011;27639;48.674;9.242;2024-02-23T14:21:16;4.78;;;0.90;;
21501;SDS011;27639;48.674;9.242;2024-02-23T14:23:43;6.80;;;1.33;;
21501;SDS011;27639;48.674;9.242;2024-02-23T14:26:09;5.72;;;1.08;;
21501;SDS011;27639;48.674;9.242;2024-02-23T14:28:34;3.58;;;1.20;;
21501;SDS011;27639;48.674;9.242;2024-02-23T14:31:00;3.92;;;1.30;;
21501;SDS011;27639;48.674;9.242;2024-02-23T14:33:26;12.07;;;6.57;;
21501;SDS011;27639;48.674;9.242;2024-02-23T14:35:51;7.05;;;2.70;;
21501;SDS011;27639;48.674;9.242;2024-02-23T14:38:17;6.15;;;1.80;;
21501;SDS011;27639;48.674;9.242;2024-02-23T14:40:43;5.28;;;1.38;;
21501;SDS011;27639;48.674;9.242;2024-02-23T14:43:09;5.57;;;1.48;;